Time;durP1;ratioP1;P1;durP2;ratioP2;P2;SDS_P1;SDS_P2;PMS_P1;PMS_P2;Temp;Humidity;BMP_temperature;BMP_pressure;BME280_temperature;BME280_humidity;BME280_pressure;Samples;Min_cycle;Max_cycle;Signal;HPM_P1;HPM_P2
2021/06/16 00:00:21;;;;;;;5.25;2.63;;;;;;;15.75;74.25;95856.66;5114921;28;20019;-60
2021/06/16 00:02:47;;;;;;;9.30;2.50;;;;;;;15.74;73.82;95861.06;5114729;28;20024;-60
2021/06/16 00:05:24;;;;;;;3.72;2.35;;;;;;;15.70;73.82;95858.75;5114630;28;20024;-60
2021/06/16 00:07:50;;;;;;;2.83;2.05;;;;;;;15.68;73.73;95858.84;5114678;28;20028;-60
2021/06/16 00:10:19;;;;;;;3.15;2.13;;;;;;;15.68;74.31;95858.03;5114680;28;20027;-63
2021/06/16 00:12:45;;;;;;;6.75;2.28;;;;;;;15.64;74.41;95854.75;5114605;28;20027;-62
2021/06/16 00:15:18;;;;;;;7.20;2.47;;;;;;;15.60;74.53;95856.78;5114254;28;20401;-61
2021/06/16 00:17:44;;;;;;;5.32;3.10;;;;;;;15.55;74.33;95858.88;5114425;28;20028;-61
2021/06/16 00:20:10;;;;;;;5.38;2.22;;;;;;;15.60;75.05;95867.31;5114383;28;20076;-60
2021/06/16 00:22:36;;;;;;;7.90;2.85;;;;;;;15.59;74.96;95867.41;5114384;28;20028;-60
2021/06/16 00:25:04;;;;;;;5.95;3.15;;;;;;;15.62;75.19;95862.75;5114404;28;20381;-61
2021/06/16 00:27:29;;;;;;;4.82;2.45;;;;;;;15.53;75.18;95861.59;5114485;28;20102;-59
2021/06/16 00:29:55;;;;;;;7.22;2.80;;;;;;;15.52;75.56;95859.06;5114101;28;20479;-62
2021/06/16 00:32:21;;;;;;;6.82;3.00;;;;;;;15.45;75.37;95866.56;5114237;28;20031;-61
2021/06/16 00:34:46;;;;;;;7.60;2.35;;;;;;;15.45;75.95;95855.19;5114122;28;20068;-60
2021/06/16 00:37:12;;;;;;;4.43;3.30;;;;;;;15.46;76.06;95856.84;5113323;28;20034;-61
2021/06/16 00:39:38;;;;;;;3.58;2.47;;;;;;;15.46;76.09;95867.41;5113923;28;20035;-60
2021/06/16 00:42:04;;;;;;;4.38;2.97;;;;;;;15.43;76.17;95870.25;5114062;28;20023;-61
2021/06/16 00:44:29;;;;;;;2.83;2.60;;;;;;;15.47;75.44;95875.19;5114000;28;20455;-62
2021/06/16 00:46:55;;;;;;;6.28;3.00;;;;;;;15.48;76.20;95873.41;5114044;28;20055;-61
2021/06/16 00:49:21;;;;;;;2.28;2.08;;;;;;;15.45;74.56;95878.91;5095675;28;20016;-63
2021/06/16 00:51:46;;;;;;;5.35;3.03;;;;;;;15.49;74.35;95873.31;5113736;28;20022;-60
2021/06/16 00:54:12;;;;;;;4.30;2.40;;;;;;;15.56;74.71;95872.91;5113773;28;20073;-61
2021/06/16 00:56:40;;;;;;;11.30;2.88;;;;;;;15.65;73.14;95882.78;5113794;28;20027;-61
2021/06/16 00:59:07;;;;;;;4.78;2.40;;;;;;;15.77;73.30;95883.72;5113716;28;20031;-60
2021/06/16 01:01:38;;;;;;;3.97;2.97;;;;;;;15.86;73.57;95879.63;5095495;28;20040;-61
2021/06/16 01:04:19;;;;;;;4.70;2.40;;;;;;;15.96;72.26;95874.53;5113806;28;20027;-61
2021/06/16 01:07:05;;;;;;;2.42;2.17;;;;;;;15.96;71.64;95874.53;5113758;28;20024;-62
2021/06/16 01:09:34;;;;;;;2.85;2.10;;;;;;;16.09;71.74;95867.47;5113031;28;20050;-62
2021/06/16 01:12:22;;;;;;;4.30;2.50;;;;;;;16.19;71.02;95864.19;5113609;28;20043;-60
2021/06/16 01:14:49;;;;;;;2.13;1.98;;;;;;;16.26;71.31;95868.06;5113256;28;20057;-61
2021/06/16 01:17:21;;;;;;;3.47;2.53;;;;;;;16.33;71.14;95865.81;5113613;28;20477;-63
2021/06/16 01:19:59;;;;;;;5.82;2.20;;;;;;;16.37;70.78;95875.19;5113512;28;20031;-61
2021/06/16 01:22:42;;;;;;;3.90;2.38;;;;;;;16.39;70.86;95870.66;5113600;28;20020;-63
2021/06/16 01:25:15;;;;;;;3.85;2.25;;;;;;;16.42;70.58;95859.88;5113469;28;20019;-62
2021/06/16 01:27:41;;;;;;;3.35;2.03;;;;;;;16.46;70.83;95869.25;5113540;28;20031;-62
2021/06/16 01:30:08;;;;;;;3.15;2.25;;;;;;;16.51;70.38;95871.56;5113521;28;20028;-62
2021/06/16 01:32:35;;;;;;;2.58;2.38;;;;;;;16.52;70.20;95879.38;5113362;28;20016;-62
2021/06/16 01:35:01;;;;;;;2.63;2.30;;;;;;;16.45;70.11;95870.22;5113264;28;20423;-60
2021/06/16 01:37:27;;;;;;;2.55;2.25;;;;;;;16.48;70.35;95872.66;5113422;28;20027;-61
2021/06/16 01:39:54;;;;;;;2.50;2.30;;;;;;;16.50;69.66;95876.00;5113213;28;20041;-62
2021/06/16 01:42:22;;;;;;;2.45;2.00;;;;;;;16.56;70.36;95882.66;5113338;28;20037;-60
2021/06/16 01:44:51;;;;;;;3.70;2.20;;;;;;;16.54;70.06;95882.75;5113183;28;20016;-61
2021/06/16 01:47:20;;;;;;;3.15;2.13;;;;;;;16.61;69.79;95887.56;5114179;28;20049;-61
2021/06/16 01:49:48;;;;;;;6.75;2.70;;;;;;;16.63;69.65;95889.16;5098967;28;20015;-62
2021/06/16 01:52:17;;;;;;;1.90;1.80;;;;;;;16.65;69.89;95884.59;5099370;28;20064;-63
2021/06/16 01:54:43;;;;;;;2.75;2.50;;;;;;;16.67;70.08;95882.69;5117387;28;20019;-60
2021/06/16 01:57:10;;;;;;;5.53;2.38;;;;;;;16.72;69.98;95874.44;5117159;28;20028;-63
2021/06/16 01:59:41;;;;;;;2.35;2.00;;;;;;;16.76;69.35;95875.03;5117074;28;20070;-61
2021/06/16 02:02:07;;;;;;;4.28;2.13;;;;;;;16.73;69.86;95872.63;5117103;28;20023;-64
2021/06/16 02:04:34;;;;;;;5.47;2.53;;;;;;;16.67;69.67;95876.56;5117208;28;20023;-61
2021/06/16 02:07:22;;;;;;;2.35;2.15;;;;;;;16.71;69.83;95871.91;5117020;28;20022;-62
2021/06/16 02:09:50;;;;;;;4.05;2.28;;;;;;;16.74;69.85;95871.69;5117027;28;20462;-60
2021/06/16 02:12:18;;;;;;;2.78;2.58;;;;;;;16.71;69.50;95871.91;5117026;28;20027;-62
2021/06/16 02:15:06;;;;;;;2.55;2.35;;;;;;;16.70;69.17;95871.06;5116620;28;20143;-61
2021/06/16 02:17:34;;;;;;;5.78;2.20;;;;;;;16.66;68.71;95857.25;5117024;28;20371;-60
2021/06/16 02:20:00;;;;;;;3.70;2.63;;;;;;;16.66;68.84;95864.31;5116728;28;20065;-62
2021/06/16 02:22:27;;;;;;;2.47;2.28;;;;;;;16.72;68.93;95861.25;5116738;28;20392;-62
2021/06/16 02:24:54;;;;;;;4.50;2.75;;;;;;;16.77;69.00;95859.09;5116746;28;20019;-62
2021/06/16 02:27:20;;;;;;;2.30;2.10;;;;;;;16.82;68.42;95873.78;5116713;28;20035;-62
2021/06/16 02:29:46;;;;;;;7.07;2.25;;;;;;;16.84;68.32;95869.19;5116611;28;20469;-62
2021/06/16 02:32:11;;;;;;;4.22;2.90;;;;;;;16.84;68.30;95874.47;5116492;28;20048;-61
2021/06/16 02:34:37;;;;;;;2.78;2.47;;;;;;;16.88;67.83;95883.84;5116459;28;20020;-63
2021/06/16 02:37:06;;;;;;;2.90;2.47;;;;;;;16.81;68.56;95886.13;5116556;28;20020;-62
2021/06/16 02:39:39;;;;;;;2.75;2.20;;;;;;;16.85;68.42;95886.72;5116494;28;20027;-62
2021/06/16 02:42:07;;;;;;;3.72;2.47;;;;;;;16.86;68.03;95878.69;5116604;28;20024;-62
2021/06/16 02:44:33;;;;;;;2.67;2.40;;;;;;;16.81;68.63;95880.84;5116351;28;20028;-61
2021/06/16 02:47:00;;;;;;;10.57;2.40;;;;;;;16.83;68.21;95892.16;5116172;28;20423;-62
2021/06/16 02:49:33;;;;;;;3.00;2.58;;;;;;;16.80;68.63;95898.47;5116227;28;20019;-61
2021/06/16 02:52:01;;;;;;;7.32;2.50;;;;;;;16.78;68.40;95904.84;5097858;28;20381;-59
2021/06/16 02:54:32;;;;;;;3.03;2.72;;;;;;;16.77;68.61;95892.59;5116182;28;20536;-59
2021/06/16 02:57:03;;;;;;;3.67;2.53;;;;;;;16.80;68.49;95895.84;5116040;28;20395;-62
2021/06/16 02:59:30;;;;;;;17.00;2.58;;;;;;;16.79;68.54;95906.50;5115345;28;20049;-60
2021/06/16 03:01:56;;;;;;;3.47;2.92;;;;;;;16.80;68.66;95913.50;5116023;28;20098;-61
2021/06/16 03:04:23;;;;;;;3.58;2.58;;;;;;;16.76;68.86;95907.59;5115985;28;20016;-63
2021/06/16 03:06:50;;;;;;;6.43;2.60;;;;;;;16.73;68.52;95904.31;5115936;28;20027;-60
2021/06/16 03:09:19;;;;;;;6.88;2.83;;;;;;;16.80;68.50;95909.03;5115729;28;20076;-62
2021/06/16 03:11:45;;;;;;;4.22;3.70;;;;;;;16.80;68.33;95918.78;5115717;28;20028;-63
2021/06/16 03:14:12;;;;;;;4.78;2.83;;;;;;;16.85;67.45;95916.63;5115655;28;20024;-63
2021/06/16 03:16:38;;;;;;;11.55;2.88;;;;;;;16.88;67.43;95916.41;5115730;28;20478;-62
2021/06/16 03:19:05;;;;;;;3.75;2.80;;;;;;;16.82;68.33;95918.66;5115674;28;20415;-61
2021/06/16 03:21:34;;;;;;;3.13;2.92;;;;;;;16.86;67.79;95923.59;5115586;28;20482;-62
2021/06/16 03:24:00;;;;;;;3.35;2.80;;;;;;;16.96;67.48;95915.00;5115490;28;20485;-61
2021/06/16 03:26:27;;;;;;;3.00;2.70;;;;;;;17.03;67.23;95924.16;5115513;28;20375;-60
2021/06/16 03:28:54;;;;;;;3.63;2.60;;;;;;;17.01;68.21;95921.63;5115332;28;20024;-63
2021/06/16 03:31:20;;;;;;;7.13;2.90;;;;;;;17.08;67.18;95921.19;5115392;28;20098;-61
2021/06/16 03:33:47;;;;;;;5.38;2.78;;;;;;;17.13;66.90;95933.09;5115315;28;20114;-63
2021/06/16 03:36:14;;;;;;;2.60;2.40;;;;;;;17.16;66.66;95913.56;5115255;28;20020;-63
2021/06/16 03:38:41;;;;;;;5.53;3.30;;;;;;;17.16;66.69;95922.31;5115188;28;20056;-60
2021/06/16 03:41:09;;;;;;;6.70;3.00;;;;;;;17.20;68.03;95917.66;5115334;28;20015;-63
2021/06/16 03:43:36;;;;;;;5.47;3.05;;;;;;;17.17;67.26;95918.72;5115128;28;20023;-61
2021/06/16 03:46:07;;;;;;;3.70;2.80;;;;;;;17.21;67.61;95919.31;5115149;28;20039;-62
2021/06/16 03:48:34;;;;;;;3.95;3.30;;;;;;;17.25;67.39;95922.59;5114945;28;20028;-60
2021/06/16 03:51:00;;;;;;;4.60;2.70;;;;;;;17.40;67.75;95915.31;5114906;28;20019;-62
2021/06/16 03:53:27;;;;;;;4.18;2.50;;;;;;;17.47;67.51;95923.59;5115023;28;20160;-63
2021/06/16 03:55:55;;;;;;;4.78;3.00;;;;;;;17.56;66.24;95920.28;5114904;28;20055;-63
2021/06/16 03:58:20;;;;;;;2.58;2.38;;;;;;;17.58;67.65;95926.25;5096453;28;20020;-63
2021/06/16 04:00:46;;;;;;;3.83;2.20;;;;;;;17.77;66.02;95938.94;5114874;28;20488;-61
2021/06/16 04:03:13;;;;;;;2.97;2.28;;;;;;;18.24;64.37;95935.38;5114827;28;20052;-60
2021/06/16 04:05:41;;;;;;;4.47;2.72;;;;;;;18.48;63.94;95946.81;5114804;28;20051;-61
2021/06/16 04:08:07;;;;;;;2.40;2.20;;;;;;;18.52;63.57;95935.84;5114680;28;20102;-61
2021/06/16 04:10:34;;;;;;;2.60;2.40;;;;;;;18.48;63.13;95949.44;5114518;28;20089;-62
2021/06/16 04:13:05;;;;;;;6.68;2.78;;;;;;;18.26;63.10;95941.41;5114349;28;20028;-62
2021/06/16 04:15:31;;;;;;;5.72;2.65;;;;;;;18.23;63.69;95946.94;5114445;28;20116;-62
2021/06/16 04:17:58;;;;;;;2.42;2.22;;;;;;;18.19;63.97;95946.31;5114379;28;20469;-60
2021/06/16 04:20:25;;;;;;;4.57;2.65;;;;;;;18.18;63.70;95935.84;5114391;28;20032;-63
2021/06/16 04:22:50;;;;;;;2.28;2.08;;;;;;;18.08;64.90;95943.66;5114311;28;20024;-60
2021/06/16 04:25:16;;;;;;;3.13;2.30;;;;;;;17.97;65.38;95956.88;5114411;28;20020;-63
2021/06/16 04:27:42;;;;;;;3.10;2.90;;;;;;;17.93;65.82;95954.47;5114365;28;20016;-62
2021/06/16 04:30:11;;;;;;;3.70;2.50;;;;;;;17.91;65.89;95959.03;5114209;28;20031;-61
2021/06/16 04:32:38;;;;;;;4.82;3.00;;;;;;;17.88;65.68;95953.13;5114128;28;20110;-60
2021/06/16 04:35:05;;;;;;;4.05;3.33;;;;;;;17.72;66.23;95951.66;5113979;28;20080;-61
2021/06/16 04:37:31;;;;;;;3.70;2.95;;;;;;;17.61;66.61;95955.13;5114024;28;20016;-61
2021/06/16 04:39:56;;;;;;;2.58;2.38;;;;;;;17.53;66.37;95958.38;5113992;28;20080;-60
2021/06/16 04:42:22;;;;;;;4.13;2.88;;;;;;;17.48;67.29;95949.06;5114142;28;20496;-60
2021/06/16 04:44:47;;;;;;;3.03;2.50;;;;;;;17.50;67.73;95961.25;5114063;28;20023;-61
2021/06/16 04:47:13;;;;;;;3.10;2.88;;;;;;;17.43;68.01;95968.78;5113986;28;20028;-60
2021/06/16 04:49:39;;;;;;;4.03;2.78;;;;;;;17.39;68.66;95969.13;5114031;28;20062;-62
2021/06/16 04:52:05;;;;;;;4.18;2.88;;;;;;;17.30;69.21;95960.94;5114053;28;20023;-62
2021/06/16 04:54:30;;;;;;;3.83;2.50;;;;;;;17.30;68.16;95954.78;5113916;28;20038;-61
2021/06/16 04:57:03;;;;;;;6.78;3.10;;;;;;;17.37;68.29;95950.72;5113900;28;20028;-62
2021/06/16 04:59:28;;;;;;;7.70;3.13;;;;;;;17.47;68.45;95961.47;5113816;28;20028;-61
2021/06/16 05:01:54;;;;;;;3.80;3.40;;;;;;;17.53;68.43;95974.22;5113716;28;20528;-61
2021/06/16 05:04:19;;;;;;;6.80;3.03;;;;;;;17.62;68.52;95979.75;5113729;28;20165;-61
2021/06/16 05:06:45;;;;;;;3.35;2.80;;;;;;;17.65;68.24;95979.53;5113839;28;20057;-62
2021/06/16 05:09:11;;;;;;;3.33;3.03;;;;;;;17.68;68.10;95982.81;5113735;28;20101;-63
2021/06/16 05:11:36;;;;;;;2.85;2.25;;;;;;;17.75;68.10;95977.88;5113523;28;20108;-62
2021/06/16 05:14:02;;;;;;;2.83;2.40;;;;;;;17.86;68.06;95977.06;5113543;28;20112;-62
2021/06/16 05:16:27;;;;;;;4.82;2.58;;;;;;;17.83;67.57;95992.31;5113411;28;20043;-61
2021/06/16 05:18:53;;;;;;;2.67;2.40;;;;;;;17.85;67.08;95999.16;5113450;28;20026;-61
2021/06/16 05:21:19;;;;;;;3.67;2.60;;;;;;;17.86;67.64;95990.28;5113483;28;20469;-61
2021/06/16 05:23:45;;;;;;;3.05;2.20;;;;;;;17.90;67.47;95986.44;5113024;28;20055;-60
2021/06/16 05:26:10;;;;;;;2.45;2.25;;;;;;;17.92;67.30;95994.25;5113438;28;20055;-62
2021/06/16 05:28:36;;;;;;;2.10;2.00;;;;;;;17.90;66.60;96004.09;5113364;28;20051;-61
2021/06/16 05:31:01;;;;;;;4.05;2.22;;;;;;;17.88;66.81;96003.41;5113507;28;20028;-62
2021/06/16 05:33:27;;;;;;;1.63;1.52;;;;;;;17.92;67.11;95996.91;5113468;28;20016;-63
2021/06/16 05:35:53;;;;;;;2.25;1.90;;;;;;;18.07;66.33;95989.59;5113339;28;20493;-61
2021/06/16 05:38:19;;;;;;;2.25;2.05;;;;;;;18.26;67.38;95990.84;5113367;28;20431;-63
2021/06/16 05:40:45;;;;;;;2.30;2.10;;;;;;;18.40;67.86;95981.81;5113292;28;20027;-61
2021/06/16 05:43:10;;;;;;;2.50;2.30;;;;;;;18.63;65.70;95990.56;5113399;28;20057;-63
2021/06/16 05:45:36;;;;;;;2.28;2.08;;;;;;;18.79;65.31;95987.53;5113241;28;20496;-63
2021/06/16 05:48:01;;;;;;;4.47;2.42;;;;;;;18.87;64.80;95989.56;5113185;28;20099;-63
2021/06/16 05:50:27;;;;;;;2.55;2.35;;;;;;;18.87;64.72;95983.47;5113252;28;20027;-63
2021/06/16 05:52:53;;;;;;;3.00;2.70;;;;;;;18.77;64.96;96002.72;5113321;28;20104;-60
2021/06/16 05:55:19;;;;;;;3.28;2.67;;;;;;;18.69;63.76;96010.44;5113191;28;20430;-60
2021/06/16 05:57:44;;;;;;;2.70;2.50;;;;;;;18.64;64.38;96009.97;5113199;28;20032;-62
2021/06/16 06:00:10;;;;;;;3.03;2.75;;;;;;;18.66;64.40;96003.59;5112969;28;20039;-61
2021/06/16 06:02:37;;;;;;;3.10;2.72;;;;;;;18.73;64.20;96017.19;5113137;28;20106;-61
2021/06/16 06:05:04;;;;;;;5.03;3.10;;;;;;;18.76;64.57;96016.94;5113126;28;20098;-61
2021/06/16 06:07:30;;;;;;;5.07;3.08;;;;;;;18.73;65.30;96033.09;5113121;28;20377;-62
2021/06/16 06:09:55;;;;;;;5.72;2.75;;;;;;;18.67;64.35;96021.16;5113160;28;20024;-61
2021/06/16 06:12:21;;;;;;;2.67;2.47;;;;;;;18.62;65.15;96003.94;5113207;28;20373;-60
2021/06/16 06:14:47;;;;;;;2.83;2.08;;;;;;;18.72;64.01;96004.91;5112743;28;21053;-61
2021/06/16 06:17:12;;;;;;;4.68;3.83;;;;;;;18.70;64.51;96012.13;5113075;28;20042;-60
2021/06/16 06:19:38;;;;;;;3.67;2.55;;;;;;;18.68;63.68;96008.75;5112913;28;20061;-61
2021/06/16 06:22:04;;;;;;;2.67;2.25;;;;;;;18.61;63.49;96008.41;5112910;28;20024;-61
2021/06/16 06:24:29;;;;;;;4.53;2.60;;;;;;;18.58;64.61;96021.03;5112891;28;20032;-62
2021/06/16 06:26:55;;;;;;;3.47;2.80;;;;;;;18.54;65.73;96017.78;5113019;28;20077;-62
2021/06/16 06:29:22;;;;;;;3.50;2.53;;;;;;;18.46;65.44;96036.09;5112821;28;20034;-61
2021/06/16 06:31:47;;;;;;;4.13;2.22;;;;;;;18.44;66.09;96025.63;5112981;28;20106;-60
2021/06/16 06:34:14;;;;;;;2.88;2.63;;;;;;;18.47;66.27;96009.50;5113650;28;20099;-64
2021/06/16 06:36:40;;;;;;;3.25;2.95;;;;;;;18.45;65.85;96022.00;5116390;28;20497;-63
2021/06/16 06:39:06;;;;;;;4.70;3.33;;;;;;;18.35;66.57;96027.19;5116348;28;20120;-62
2021/06/16 06:41:32;;;;;;;6.82;3.33;;;;;;;18.30;66.74;96042.56;5116354;28;20015;-63
2021/06/16 06:43:58;;;;;;;3.58;3.25;;;;;;;18.30;66.85;96024.03;5116522;28;20115;-61
2021/06/16 06:46:24;;;;;;;3.13;2.63;;;;;;;18.15;65.87;96041.97;5116283;28;20027;-61
2021/06/16 06:48:49;;;;;;;3.38;3.08;;;;;;;18.05;67.04;96053.22;5116290;28;20072;-62
2021/06/16 06:51:15;;;;;;;3.40;3.10;;;;;;;17.88;67.47;96062.41;5116244;28;20031;-60
2021/06/16 06:53:41;;;;;;;4.07;3.63;;;;;;;17.76;67.54;96058.06;5116192;28;20454;-64
2021/06/16 06:56:06;;;;;;;5.18;3.22;;;;;;;17.77;67.45;96060.59;5116181;28;20473;-60
2021/06/16 06:58:33;;;;;;;3.55;3.25;;;;;;;17.80;67.90;96059.53;5115968;28;20035;-61
2021/06/16 07:00:58;;;;;;;3.88;3.33;;;;;;;17.79;67.73;96058.66;5115963;28;20518;-63
2021/06/16 07:03:24;;;;;;;5.53;3.10;;;;;;;17.72;68.74;96057.44;5097809;28;20111;-61
2021/06/16 07:05:50;;;;;;;8.85;3.90;;;;;;;17.71;68.50;96058.41;5115898;28;20023;-61
2021/06/16 07:08:16;;;;;;;4.28;2.78;;;;;;;17.71;67.82;96065.50;5115913;28;20024;-62
2021/06/16 07:10:42;;;;;;;9.27;4.10;;;;;;;17.72;68.61;96062.75;5115754;28;20027;-62
2021/06/16 07:13:07;;;;;;;7.22;2.67;;;;;;;17.74;68.49;96054.69;5115853;28;20525;-62
2021/06/16 07:15:33;;;;;;;4.93;3.38;;;;;;;17.75;68.42;96061.66;5115652;28;20481;-61
2021/06/16 07:17:59;;;;;;;3.80;3.50;;;;;;;17.78;68.59;96066.72;5115656;28;20020;-62
2021/06/16 07:20:25;;;;;;;3.47;3.17;;;;;;;17.91;68.42;96045.50;5115766;28;20023;-61
2021/06/16 07:22:50;;;;;;;4.20;3.80;;;;;;;18.04;68.56;96061.28;5115636;28;20023;-63
2021/06/16 07:25:17;;;;;;;3.00;2.70;;;;;;;18.15;67.99;96061.31;5115501;28;20054;-61
2021/06/16 07:27:43;;;;;;;5.55;3.17;;;;;;;18.21;68.05;96069.75;5115472;28;20371;-61
2021/06/16 07:30:09;;;;;;;4.25;2.20;;;;;;;18.22;68.67;96072.28;5115521;28;20024;-61
2021/06/16 07:32:36;;;;;;;5.68;2.45;;;;;;;18.32;67.69;96075.06;5115525;28;20030;-61
2021/06/16 07:35:03;;;;;;;3.28;2.42;;;;;;;18.43;67.35;96076.91;5115369;28;20026;-61
2021/06/16 07:37:29;;;;;;;2.88;2.50;;;;;;;18.53;66.48;96071.72;5115297;28;20373;-61
2021/06/16 07:39:55;;;;;;;2.47;2.28;;;;;;;18.56;66.58;96077.63;5115179;28;20477;-60
2021/06/16 07:42:21;;;;;;;3.00;2.72;;;;;;;18.63;66.04;96067.38;5115189;28;20087;-61
2021/06/16 07:44:47;;;;;;;3.70;2.30;;;;;;;18.68;65.72;96074.97;5114888;28;20530;-61
2021/06/16 07:47:13;;;;;;;3.35;2.70;;;;;;;18.72;65.51;96065.81;5115138;28;20027;-63
2021/06/16 07:49:38;;;;;;;4.47;2.25;;;;;;;18.74;65.29;96071.84;5114960;28;20077;-60
2021/06/16 07:52:05;;;;;;;2.45;2.25;;;;;;;18.79;65.35;96071.50;5115131;28;20016;-63
2021/06/16 07:54:30;;;;;;;4.95;2.50;;;;;;;18.80;65.75;96070.50;5114895;28;20027;-62
2021/06/16 07:56:56;;;;;;;2.80;2.13;;;;;;;18.92;65.22;96072.19;5114920;28;20035;-60
2021/06/16 07:59:22;;;;;;;2.50;2.30;;;;;;;19.02;65.71;96066.19;5114878;28;20057;-63
2021/06/16 08:01:48;;;;;;;2.70;2.50;;;;;;;18.80;66.30;96071.38;5114795;28;20495;-63
2021/06/16 08:04:14;;;;;;;2.85;2.53;;;;;;;18.80;65.71;96070.50;5114840;28;20023;-63
2021/06/16 08:06:40;;;;;;;5.28;2.58;;;;;;;18.78;65.25;96072.47;5114879;28;20019;-61
2021/06/16 08:09:06;;;;;;;2.80;2.60;;;;;;;18.87;65.76;96076.19;5114777;28;20030;-63
2021/06/16 08:11:32;;;;;;;4.07;3.10;;;;;;;19.00;65.88;96076.91;5114604;28;20030;-63
2021/06/16 08:13:57;;;;;;;3.08;2.53;;;;;;;19.05;65.51;96084.47;5114504;28;20020;-61
2021/06/16 08:16:23;;;;;;;3.63;3.33;;;;;;;19.15;65.44;96088.09;5114369;28;20080;-61
2021/06/16 08:18:50;;;;;;;6.18;3.30;;;;;;;19.21;65.33;96084.13;5114380;28;20027;-62
2021/06/16 08:21:17;;;;;;;2.58;2.35;;;;;;;19.26;64.57;96089.06;5114500;28;20031;-62
2021/06/16 08:23:44;;;;;;;3.50;2.28;;;;;;;19.31;64.52;96079.75;5114360;28;20039;-63
2021/06/16 08:26:10;;;;;;;3.20;2.53;;;;;;;19.40;64.24;96093.22;5114213;28;20418;-64
2021/06/16 08:28:36;;;;;;;3.22;1.90;;;;;;;19.41;63.43;96089.59;5114357;28;20024;-62
2021/06/16 08:31:02;;;;;;;2.53;1.75;;;;;;;19.45;64.45;96110.44;5114253;28;20077;-61
2021/06/16 08:33:28;;;;;;;5.30;1.55;;;;;;;19.50;63.90;96115.38;5114253;28;20027;-64
2021/06/16 08:35:54;;;;;;;1.98;1.65;;;;;;;19.62;64.46;96123.31;5114154;28;20020;-62
2021/06/16 08:38:19;;;;;;;1.77;1.60;;;;;;;19.69;65.79;96111.25;5114026;28;20019;-61
2021/06/16 08:40:45;;;;;;;5.40;1.45;;;;;;;19.91;64.91;96118.28;5114115;28;20046;-64
2021/06/16 08:43:13;;;;;;;1.60;1.50;;;;;;;20.11;64.53;96114.94;5114237;28;20051;-61
2021/06/16 08:45:40;;;;;;;3.20;1.80;;;;;;;20.28;63.70;96114.38;5114106;28;20031;-61
2021/06/16 08:48:07;;;;;;;1.58;1.40;;;;;;;20.41;61.57;96118.66;5113933;28;20369;-64
2021/06/16 08:50:33;;;;;;;2.70;1.42;;;;;;;20.56;60.39;96108.53;5113955;28;20070;-63
2021/06/16 08:52:59;;;;;;;5.68;2.00;;;;;;;20.64;60.68;96103.38;5113978;28;20048;-62
2021/06/16 08:55:24;;;;;;;1.98;1.88;;;;;;;20.65;60.12;96101.59;5113893;28;20381;-63
2021/06/16 08:57:50;;;;;;;2.50;1.92;;;;;;;20.70;60.21;96110.84;5113295;28;20445;-63
2021/06/16 09:00:18;;;;;;;2.13;1.92;;;;;;;20.85;60.56;96107.81;5113859;28;20034;-61
2021/06/16 09:02:44;;;;;;;2.78;2.25;;;;;;;20.75;58.95;96112.25;5113833;28;20024;-61
2021/06/16 09:05:11;;;;;;;2.35;2.10;;;;;;;20.68;59.02;96107.47;5113773;28;20360;-63
2021/06/16 09:07:39;;;;;;;2.35;2.17;;;;;;;20.70;59.73;96102.00;5113620;28;20118;-60
2021/06/16 09:10:18;;;;;;;5.47;2.40;;;;;;;20.65;58.76;96106.91;5113700;28;20440;-64
2021/06/16 09:12:59;;;;;;;5.22;2.38;;;;;;;20.61;59.94;96102.81;5095468;28;20032;-61
2021/06/16 09:15:30;;;;;;;2.60;2.40;;;;;;;20.62;60.10;96107.97;5113245;28;20051;-60
2021/06/16 09:18:12;;;;;;;5.47;2.00;;;;;;;20.61;59.05;96093.03;5113532;28;20028;-62
2021/06/16 09:20:41;;;;;;;4.13;2.45;;;;;;;20.53;59.31;96085.72;5113543;28;20035;-64
2021/06/16 09:23:20;;;;;;;2.92;2.17;;;;;;;20.47;60.52;96093.38;5113408;28;20020;-63
2021/06/16 09:26:17;;;;;;;2.45;2.28;;;;;;;20.42;59.73;96112.34;5113466;28;20036;-62
2021/06/16 09:28:50;;;;;;;5.00;2.20;;;;;;;20.45;59.64;96115.59;5113576;28;20038;-63
2021/06/16 09:31:17;;;;;;;3.78;2.88;;;;;;;20.52;60.18;96109.75;5113408;28;20028;-63
2021/06/16 09:33:43;;;;;;;5.40;2.13;;;;;;;20.61;60.51;96121.41;5113430;28;20020;-64
2021/06/16 09:36:17;;;;;;;2.50;2.30;;;;;;;20.61;59.71;96116.09;5113271;28;20024;-60
2021/06/16 09:38:46;;;;;;;5.97;2.72;;;;;;;20.61;59.87;96113.44;5113432;28;20506;-63
2021/06/16 09:41:13;;;;;;;2.60;2.40;;;;;;;20.61;60.11;96121.41;5113433;28;20026;-64
2021/06/16 09:43:40;;;;;;;4.05;2.80;;;;;;;20.64;61.10;96116.66;5113389;28;20028;-62
2021/06/16 09:46:08;;;;;;;6.43;2.67;;;;;;;20.58;61.79;96125.16;5113454;28;20030;-64
2021/06/16 09:48:44;;;;;;;3.00;2.80;;;;;;;20.51;60.52;96119.56;5113205;28;20081;-64
2021/06/16 09:51:18;;;;;;;3.95;2.75;;;;;;;20.43;60.12;96133.47;5113223;28;20494;-61
2021/06/16 09:54:11;;;;;;;3.10;2.80;;;;;;;20.44;60.86;96131.66;5113289;28;20028;-62
2021/06/16 09:56:38;;;;;;;4.70;2.80;;;;;;;20.48;61.35;96142.84;5113204;28;20057;-64
2021/06/16 09:59:05;;;;;;;2.95;2.75;;;;;;;20.46;60.39;96129.72;5113179;28;20023;-61
2021/06/16 10:01:56;;;;;;;2.67;2.33;;;;;;;20.55;59.77;96141.38;5113069;28;20032;-64
2021/06/16 10:04:33;;;;;;;2.90;2.53;;;;;;;20.51;59.96;96129.31;5113198;28;20016;-62
2021/06/16 10:07:13;;;;;;;3.67;2.65;;;;;;;20.63;60.85;96143.38;5113055;28;20137;-64
2021/06/16 10:09:45;;;;;;;4.85;3.10;;;;;;;20.58;60.83;96157.03;5116215;28;20066;-63
2021/06/16 10:12:11;;;;;;;4.68;2.53;;;;;;;20.48;59.85;96157.00;5117033;28;20074;-63
2021/06/16 10:14:37;;;;;;;3.05;2.72;;;;;;;20.51;59.94;96153.22;5116729;28;20393;-63
2021/06/16 10:17:03;;;;;;;2.83;2.63;;;;;;;20.48;60.27;96157.00;5116832;28;20031;-63
2021/06/16 10:19:29;;;;;;;2.90;2.45;;;;;;;20.51;60.29;96163.84;5116707;28;20019;-61
2021/06/16 10:21:56;;;;;;;3.88;2.78;;;;;;;20.31;60.23;96172.53;5116840;28;20496;-60
2021/06/16 10:24:21;;;;;;;2.80;2.60;;;;;;;20.16;58.89;96165.81;5116725;28;20020;-61
2021/06/16 10:26:52;;;;;;;3.03;2.78;;;;;;;20.12;59.59;96181.19;5116762;28;20020;-62
2021/06/16 10:29:19;;;;;;;2.97;2.78;;;;;;;20.17;59.81;96175.50;5116695;28;20080;-60
2021/06/16 10:31:45;;;;;;;3.00;2.70;;;;;;;20.21;60.38;96179.59;5116666;28;20023;-61
2021/06/16 10:34:10;;;;;;;4.80;2.75;;;;;;;20.21;60.48;96179.59;5116631;28;20373;-61
2021/06/16 10:36:36;;;;;;;3.20;2.90;;;;;;;20.26;60.77;96182.69;5116505;28;20043;-61
2021/06/16 10:39:03;;;;;;;2.90;2.70;;;;;;;20.36;61.28;96193.41;5116307;28;20028;-61
2021/06/16 10:41:55;;;;;;;3.00;2.80;;;;;;;20.42;61.59;96197.34;5116421;28;20036;-61
2021/06/16 10:44:22;;;;;;;3.10;2.80;;;;;;;20.45;61.94;96197.94;5112172;28;20067;-63
2021/06/16 10:46:53;;;;;;;5.57;2.53;;;;;;;20.49;62.20;96206.47;5116471;28;20050;-63
2021/06/16 10:49:42;;;;;;;6.07;2.83;;;;;;;20.56;61.98;96205.00;5116226;28;20024;-63
2021/06/16 10:52:13;;;;;;;12.23;3.13;;;;;;;20.54;63.11;96201.63;5100594;28;20040;-61
2021/06/16 10:54:38;;;;;;;;;;;;;;;20.53;61.15;96204.41;5116605;28;20405;-59
2021/06/16 10:57:05;;;;;;;2.65;2.28;;;;;;;20.59;62.48;96203.91;5116072;28;19912;-63
2021/06/16 10:59:43;;;;;;;4.47;2.38;;;;;;;20.68;59.91;96196.97;5116014;28;20431;-61
2021/06/16 11:02:09;;;;;;;2.47;2.28;;;;;;;20.84;59.75;96192.00;5116002;28;20047;-64
2021/06/16 11:04:37;;;;;;;2.38;2.15;;;;;;;20.99;59.65;96201.50;5115890;28;20459;-64
2021/06/16 11:07:04;;;;;;;5.70;2.35;;;;;;;21.08;58.93;96200.72;5115934;28;20073;-64
2021/06/16 11:09:55;;;;;;;2.50;2.30;;;;;;;21.16;59.59;96203.53;5115796;28;20106;-61
2021/06/16 11:12:39;;;;;;;2.47;1.95;;;;;;;21.14;57.95;96205.50;5115911;28;20035;-63
2021/06/16 11:15:07;;;;;;;5.45;2.30;;;;;;;21.17;58.89;96207.91;5115501;28;20050;-63
2021/06/16 11:17:39;;;;;;;3.60;2.50;;;;;;;21.23;58.69;96208.34;5115668;28;20083;-60
2021/06/16 11:20:10;;;;;;;3.22;2.15;;;;;;;21.11;60.74;96205.78;5115054;28;20114;-63
2021/06/16 11:22:44;;;;;;;2.67;2.47;;;;;;;21.10;61.75;96213.88;5115749;28;20032;-61
2021/06/16 11:25:13;;;;;;;4.60;2.63;;;;;;;21.06;60.73;96197.34;5115486;28;20122;-62
2021/06/16 11:27:51;;;;;;;2.55;2.22;;;;;;;21.24;61.85;96204.69;5115456;28;20024;-63
2021/06/16 11:30:35;;;;;;;3.60;1.98;;;;;;;21.33;60.82;96198.56;5115527;28;20027;-64
2021/06/16 11:33:22;;;;;;;2.35;2.08;;;;;;;21.34;58.66;96201.09;5115385;28;20027;-64
2021/06/16 11:36:03;;;;;;;2.30;2.05;;;;;;;21.17;58.74;96205.25;5115456;28;20041;-61
2021/06/16 11:38:37;;;;;;;5.45;2.72;;;;;;;21.20;59.09;96209.44;5115261;28;20032;-61